Time;durP1;ratioP1;P1;durP2;ratioP2;P2;SDS_P1;SDS_P2;PMS_P1;PMS_P2;Temp;Humidity;BMP_temperature;BMP_pressure;BME280_temperature;BME280_humidity;BME280_pressure;Samples;Min_cycle;Max_cycle;Signal;HPM_P1;HPM_P2
2021/08/16 00:01:28;;;;;;;2.60;1.70;;;28.70;56.60;;;;;;5046263;28;20044;-63
2021/08/16 00:03:54;;;;;;;2.55;1.75;;;28.70;56.60;;;;;;5061615;28;20092;-63
2021/08/16 00:06:20;;;;;;;2.33;1.73;;;28.70;56.60;;;;;;5042249;28;20057;-61
2021/08/16 00:08:45;;;;;;;2.53;1.70;;;28.70;56.60;;;;;;5052783;28;20025;-63
2021/08/16 00:11:11;;;;;;;2.45;1.60;;;28.70;56.60;;;;;;5049024;28;20024;-63
2021/08/16 00:13:37;;;;;;;3.05;1.70;;;28.70;56.60;;;;;;5052086;28;20127;-64
2021/08/16 00:16:03;;;;;;;2.50;1.80;;;28.70;56.60;;;;;;5053682;28;20025;-63
2021/08/16 00:18:30;;;;;;;2.55;1.70;;;28.70;56.60;;;;;;5053670;28;20031;-63
2021/08/16 00:20:57;;;;;;;1.85;1.30;;;28.70;56.60;;;;;;5050480;28;20024;-64
2021/08/16 00:23:23;;;;;;;2.50;1.60;;;28.70;56.50;;;;;;5062626;28;20037;-63
2021/08/16 00:25:49;;;;;;;2.85;1.50;;;28.60;56.50;;;;;;5059254;28;20082;-61
2021/08/16 00:28:14;;;;;;;2.65;1.70;;;28.60;56.50;;;;;;5052775;28;20029;-64
2021/08/16 00:30:40;;;;;;;2.72;1.80;;;28.60;56.50;;;;;;5053323;28;20033;-62
2021/08/16 00:33:05;;;;;;;2.75;1.83;;;28.60;56.50;;;;;;5053374;28;20358;-63
2021/08/16 00:35:31;;;;;;;2.50;1.60;;;28.60;56.50;;;;;;5061190;28;20123;-63
2021/08/16 00:37:57;;;;;;;3.40;1.65;;;28.60;56.60;;;;;;5055225;28;20044;-63
2021/08/16 00:40:22;;;;;;;2.05;1.50;;;28.60;56.60;;;;;;5064514;28;20040;-65
2021/08/16 00:42:48;;;;;;;2.53;1.77;;;28.60;56.60;;;;;;5064408;28;20036;-62
2021/08/16 00:45:14;;;;;;;2.17;1.58;;;28.60;56.60;;;;;;5065610;28;20068;-63
2021/08/16 00:47:40;;;;;;;2.42;1.60;;;28.60;56.60;;;;;;5056675;28;20499;-64
2021/08/16 00:50:08;;;;;;;3.35;1.60;;;28.50;56.60;;;;;;5056689;28;20428;-64
2021/08/16 00:52:34;;;;;;;1.95;1.45;;;28.50;56.60;;;;;;5051404;28;20050;-64
2021/08/16 00:55:00;;;;;;;2.55;1.63;;;28.50;56.60;;;;;;5050160;28;20035;-64
2021/08/16 00:57:29;;;;;;;2.80;1.70;;;28.50;56.60;;;;;;5058174;28;20433;-62
2021/08/16 00:59:56;;;;;;;2.45;1.50;;;28.50;56.60;;;;;;5062960;28;20032;-65
2021/08/16 01:02:22;;;;;;;2.20;1.50;;;28.50;56.60;;;;;;5046842;28;20031;-63
2021/08/16 01:04:47;;;;;;;2.50;1.50;;;28.50;56.60;;;;;;5052095;28;20017;-63
2021/08/16 01:07:13;;;;;;;1.90;1.42;;;28.40;56.60;;;;;;5051762;28;20021;-63
2021/08/16 01:09:38;;;;;;;2.20;1.52;;;28.40;56.60;;;;;;5052225;28;20036;-65
2021/08/16 01:12:06;;;;;;;2.13;1.50;;;28.40;56.60;;;;;;5046781;28;20407;-63
2021/08/16 01:14:32;;;;;;;2.50;1.60;;;28.40;56.60;;;;;;5053041;28;20075;-63
2021/08/16 01:16:58;;;;;;;2.75;1.60;;;28.40;56.60;;;;;;5049298;28;20392;-61
2021/08/16 01:19:23;;;;;;;2.15;1.50;;;28.40;56.60;;;;;;5043461;28;20025;-63
2021/08/16 01:21:49;;;;;;;3.00;1.50;;;28.40;56.60;;;;;;5049088;28;20117;-63
2021/08/16 01:24:16;;;;;;;2.22;1.70;;;28.40;56.60;;;;;;5054164;28;20040;-63
2021/08/16 01:26:42;;;;;;;2.42;1.50;;;28.40;56.60;;;;;;5049382;28;20048;-63
2021/08/16 01:29:18;;;;;;;2.00;1.30;;;28.30;56.60;;;;;;5049670;28;20029;-63
2021/08/16 01:31:44;;;;;;;2.20;1.50;;;28.40;56.60;;;;;;5064974;28;20036;-65
2021/08/16 01:34:10;;;;;;;2.58;1.55;;;28.40;56.60;;;;;;5059590;28;20074;-62
2021/08/16 01:36:36;;;;;;;2.35;1.70;;;28.30;56.60;;;;;;5051471;28;20083;-62
2021/08/16 01:39:01;;;;;;;2.20;1.55;;;28.30;56.60;;;;;;5047008;28;20029;-63
2021/08/16 01:41:27;;;;;;;2.22;1.42;;;28.30;56.60;;;;;;5057629;28;20024;-64
2021/08/16 01:43:53;;;;;;;2.60;1.50;;;28.30;56.60;;;;;;5057204;28;20067;-63
2021/08/16 01:46:19;;;;;;;2.10;1.40;;;28.30;56.60;;;;;;5054643;28;20029;-63
2021/08/16 01:48:45;;;;;;;2.20;1.60;;;28.30;56.60;;;;;;5063891;28;20494;-62
2021/08/16 01:51:11;;;;;;;3.17;1.55;;;28.20;56.60;;;;;;5051282;28;20029;-63
2021/08/16 01:53:36;;;;;;;2.22;1.48;;;28.20;56.50;;;;;;5054498;28;20033;-64
2021/08/16 01:56:02;;;;;;;2.20;1.42;;;28.20;56.60;;;;;;5055360;28;20049;-63
2021/08/16 01:58:28;;;;;;;2.55;1.60;;;28.20;56.60;;;;;;5049637;28;20037;-65
2021/08/16 02:00:54;;;;;;;2.30;1.40;;;28.20;56.60;;;;;;5052688;28;20028;-64
2021/08/16 02:03:20;;;;;;;2.63;1.60;;;28.20;56.50;;;;;;5057654;28;20024;-63
2021/08/16 02:05:45;;;;;;;2.33;1.60;;;28.20;56.60;;;;;;5056474;28;20095;-63
2021/08/16 02:08:11;;;;;;;2.33;1.40;;;28.20;56.60;;;;;;5051406;28;20409;-63
2021/08/16 02:10:38;;;;;;;2.03;1.40;;;28.20;56.60;;;;;;5061116;28;20032;-63
2021/08/16 02:13:04;;;;;;;2.17;1.60;;;28.20;56.60;;;;;;5060772;28;20051;-62
2021/08/16 02:15:30;;;;;;;2.38;1.45;;;28.20;56.60;;;;;;5049263;28;20021;-62
2021/08/16 02:17:56;;;;;;;2.22;1.45;;;28.20;56.60;;;;;;5047303;28;20050;-62
2021/08/16 02:20:21;;;;;;;2.60;1.58;;;28.10;56.50;;;;;;5065709;28;20024;-63
2021/08/16 02:22:48;;;;;;;2.20;1.40;;;28.10;56.50;;;;;;5048693;28;20028;-64
2021/08/16 02:25:13;;;;;;;1.92;1.38;;;28.10;56.50;;;;;;5053042;28;20023;-65
2021/08/16 02:27:44;;;;;;;2.42;1.50;;;28.10;56.50;;;;;;5047096;28;20020;-63
2021/08/16 02:30:11;;;;;;;2.10;1.50;;;28.10;56.50;;;;;;5048053;28;20532;-62
2021/08/16 02:32:36;;;;;;;2.30;1.50;;;28.10;56.50;;;;;;5047887;28;20028;-62
2021/08/16 02:35:02;;;;;;;1.77;1.30;;;28.10;56.60;;;;;;5052287;28;20052;-64
2021/08/16 02:37:27;;;;;;;2.33;1.30;;;28.10;56.60;;;;;;5049038;28;20365;-64
2021/08/16 02:39:53;;;;;;;1.77;1.40;;;28.10;56.60;;;;;;5047766;28;20922;-61
2021/08/16 02:42:18;;;;;;;2.67;1.48;;;28.10;56.60;;;;;;5052113;28;20036;-61
2021/08/16 02:44:45;;;;;;;2.15;1.58;;;28.00;56.60;;;;;;5059183;28;20035;-61
2021/08/16 02:47:10;;;;;;;2.45;1.70;;;28.00;56.50;;;;;;5053407;28;20013;-62
2021/08/16 02:49:36;;;;;;;2.42;1.40;;;28.10;56.60;;;;;;5047428;28;20036;-62
2021/08/16 02:52:03;;;;;;;2.28;1.50;;;28.00;56.60;;;;;;5050689;28;20037;-62
2021/08/16 02:54:29;;;;;;;1.92;1.33;;;28.10;56.60;;;;;;5049176;28;20119;-61
2021/08/16 02:56:54;;;;;;;2.05;1.40;;;28.00;56.60;;;;;;5039427;28;20120;-64
2021/08/16 02:59:20;;;;;;;1.85;1.27;;;28.00;56.60;;;;;;5065170;28;20047;-64
2021/08/16 03:01:45;;;;;;;2.38;1.50;;;28.00;56.60;;;;;;5048822;28;20021;-62
2021/08/16 03:04:11;;;;;;;2.30;1.70;;;28.00;56.60;;;;;;5046953;28;20021;-62
2021/08/16 03:06:37;;;;;;;2.28;1.40;;;28.00;56.60;;;;;;5049204;28;20412;-64
2021/08/16 03:09:02;;;;;;;2.20;1.60;;;28.00;56.60;;;;;;5038697;28;20057;-62
2021/08/16 03:11:28;;;;;;;1.90;1.40;;;28.00;56.60;;;;;;5044354;28;20422;-63
2021/08/16 03:13:54;;;;;;;2.20;1.48;;;28.00;56.60;;;;;;5047837;28;20079;-62
2021/08/16 03:16:20;;;;;;;2.20;1.42;;;27.90;56.60;;;;;;5048207;28;20025;-61
2021/08/16 03:18:46;;;;;;;3.60;1.30;;;27.90;56.60;;;;;;5046744;28;20242;-64
2021/08/16 03:21:12;;;;;;;1.85;1.40;;;27.90;56.60;;;;;;5035002;28;20396;-62
2021/08/16 03:23:37;;;;;;;2.20;1.60;;;27.90;56.60;;;;;;5051289;28;20551;-63
2021/08/16 03:26:03;;;;;;;2.47;1.65;;;27.90;56.60;;;;;;5035324;28;20044;-61
2021/08/16 03:28:29;;;;;;;2.03;1.45;;;27.90;56.60;;;;;;5025992;28;20100;-63
2021/08/16 03:30:55;;;;;;;2.05;1.48;;;27.90;56.60;;;;;;5036147;28;20033;-64
2021/08/16 03:33:20;;;;;;;2.38;1.50;;;27.90;56.60;;;;;;5048504;28;20104;-62
2021/08/16 03:35:46;;;;;;;2.80;1.52;;;27.90;56.60;;;;;;5055916;28;20798;-63
2021/08/16 03:38:12;;;;;;;2.22;1.58;;;27.90;56.60;;;;;;5049090;28;20078;-62
2021/08/16 03:40:38;;;;;;;2.10;1.50;;;27.90;56.60;;;;;;5045128;28;20159;-63
2021/08/16 03:43:04;;;;;;;1.90;1.40;;;27.90;56.60;;;;;;5052849;28;20111;-62
2021/08/16 03:45:29;;;;;;;2.63;1.60;;;27.90;56.60;;;;;;5054652;28;20044;-63
2021/08/16 03:47:55;;;;;;;3.17;1.50;;;27.90;56.60;;;;;;5040526;28;20147;-62
2021/08/16 03:50:21;;;;;;;2.25;1.40;;;27.90;56.60;;;;;;5046062;28;20090;-61
2021/08/16 03:52:46;;;;;;;1.77;1.30;;;27.80;56.60;;;;;;5046197;28;20036;-62
2021/08/16 03:55:12;;;;;;;2.28;1.40;;;27.90;56.60;;;;;;5044089;28;20048;-64
2021/08/16 03:57:37;;;;;;;2.63;1.70;;;27.80;56.60;;;;;;5045820;28;20029;-62
2021/08/16 04:00:09;;;;;;;2.50;1.70;;;27.80;56.60;;;;;;5047536;28;20059;-63
2021/08/16 04:02:39;;;;;;;1.70;1.33;;;27.90;56.70;;;;;;5045974;28;20575;-63
2021/08/16 04:05:05;;;;;;;2.10;1.45;;;27.80;56.60;;;;;;5050514;28;20165;-63
2021/08/16 04:07:31;;;;;;;2.13;1.38;;;27.80;56.60;;;;;;5049654;28;20036;-63
2021/08/16 04:09:57;;;;;;;2.38;1.65;;;27.80;56.60;;;;;;5047734;28;20666;-63
2021/08/16 04:12:23;;;;;;;1.73;1.40;;;27.80;56.60;;;;;;5046016;28;20049;-63
2021/08/16 04:14:49;;;;;;;2.55;1.75;;;27.80;56.60;;;;;;5048283;28;20509;-63
2021/08/16 04:17:15;;;;;;;2.78;1.70;;;27.80;56.60;;;;;;5051762;28;20107;-62
2021/08/16 04:19:40;;;;;;;2.70;1.92;;;27.80;56.60;;;;;;5038689;28;20090;-62
2021/08/16 04:22:06;;;;;;;2.88;1.58;;;27.80;56.60;;;;;;5048528;28;20087;-62
2021/08/16 04:24:32;;;;;;;2.00;1.40;;;27.80;56.60;;;;;;5032583;28;20021;-64
2021/08/16 04:26:58;;;;;;;2.40;1.60;;;27.80;56.70;;;;;;5046734;28;20120;-62
2021/08/16 04:29:23;;;;;;;2.58;1.45;;;27.80;56.70;;;;;;5061261;28;20036;-63
2021/08/16 04:31:49;;;;;;;2.35;1.48;;;27.80;56.70;;;;;;5049688;28;20047;-62
2021/08/16 04:34:15;;;;;;;2.05;1.50;;;27.80;56.70;;;;;;5049372;28;20045;-63
2021/08/16 04:36:40;;;;;;;2.30;1.60;;;27.80;56.70;;;;;;5053766;28;20481;-63
2021/08/16 04:39:06;;;;;;;2.20;1.60;;;27.70;56.60;;;;;;5046514;28;20029;-60
2021/08/16 04:41:31;;;;;;;1.98;1.50;;;27.70;56.70;;;;;;5046130;28;20503;-63
2021/08/16 04:43:57;;;;;;;2.97;1.70;;;27.80;56.70;;;;;;5048401;28;20117;-61
2021/08/16 04:46:23;;;;;;;2.20;1.52;;;27.70;56.60;;;;;;5054495;28;20104;-64
2021/08/16 04:48:48;;;;;;;2.28;1.60;;;27.70;56.70;;;;;;5040985;28;20021;-64
2021/08/16 04:51:14;;;;;;;2.08;1.50;;;27.70;56.60;;;;;;5057437;28;20032;-62
2021/08/16 04:53:39;;;;;;;2.10;1.52;;;27.70;56.70;;;;;;5054340;28;20029;-63
2021/08/16 04:56:05;;;;;;;2.30;1.50;;;27.80;56.70;;;;;;5053415;28;20067;-62
2021/08/16 04:58:31;;;;;;;2.00;1.48;;;27.70;56.70;;;;;;5051143;28;20465;-64
2021/08/16 05:00:56;;;;;;;2.70;1.60;;;27.70;56.70;;;;;;5049497;28;20029;-62
2021/08/16 05:03:22;;;;;;;2.90;1.70;;;27.70;56.70;;;;;;5059081;28;20028;-64
2021/08/16 05:05:52;;;;;;;2.65;1.65;;;27.70;56.70;;;;;;5045796;28;20025;-61
2021/08/16 05:08:17;;;;;;;2.60;1.63;;;27.70;56.70;;;;;;5050541;28;20437;-60
2021/08/16 05:10:45;;;;;;;2.63;1.75;;;27.70;56.70;;;;;;5040577;28;20108;-62
2021/08/16 05:13:11;;;;;;;2.33;1.60;;;27.70;56.70;;;;;;5051516;28;20053;-65
2021/08/16 05:15:41;;;;;;;2.67;1.75;;;27.70;56.70;;;;;;5052740;28;20091;-63
2021/08/16 05:18:08;;;;;;;;;;;27.70;56.70;;;;;;5066551;28;20124;-63
2021/08/16 05:20:36;;;;;;;2.53;1.55;;;27.70;56.70;;;;;;5048035;28;20455;-63
2021/08/16 05:23:02;;;;;;;2.80;1.70;;;27.70;56.70;;;;;;5047381;28;20075;-63
2021/08/16 05:25:28;;;;;;;2.20;1.70;;;27.60;56.70;;;;;;5049716;28;20057;-63
2021/08/16 05:27:53;;;;;;;4.07;2.90;;;27.70;56.70;;;;;;5050471;28;20103;-63
2021/08/16 05:30:19;;;;;;;4.88;3.60;;;27.60;56.70;;;;;;5050913;28;20061;-61
2021/08/16 05:32:45;;;;;;;6.70;4.40;;;27.40;57.10;;;;;;5048438;28;20056;-62
2021/08/16 05:35:11;;;;;;;7.07;4.40;;;27.20;57.40;;;;;;5054129;28;20119;-64
2021/08/16 05:37:36;;;;;;;7.18;4.70;;;27.00;57.70;;;;;;5041876;28;20025;-62
2021/08/16 05:40:03;;;;;;;8.40;5.40;;;26.90;58.20;;;;;;5034140;28;20068;-64
2021/08/16 05:42:29;;;;;;;6.60;4.60;;;26.70;58.00;;;;;;5031002;28;20041;-62
2021/08/16 05:44:55;;;;;;;6.93;4.60;;;26.70;58.10;;;;;;5045005;28;20056;-64
2021/08/16 05:47:21;;;;;;;6.38;3.53;;;26.70;57.90;;;;;;5041141;28;20025;-63
2021/08/16 05:49:46;;;;;;;6.00;3.83;;;26.70;57.70;;;;;;5041232;28;20028;-64
2021/08/16 05:52:12;;;;;;;5.07;3.40;;;26.70;57.50;;;;;;5041190;28;20075;-62
2021/08/16 05:54:37;;;;;;;4.63;3.15;;;26.70;57.20;;;;;;5033804;28;20033;-64
2021/08/16 05:57:03;;;;;;;4.53;3.13;;;26.70;57.20;;;;;;5039733;28;20549;-63
2021/08/16 05:59:29;;;;;;;4.57;3.15;;;26.70;57.00;;;;;;5036396;28;20022;-62
2021/08/16 06:01:54;;;;;;;4.15;3.10;;;26.70;57.10;;;;;;5043487;28;20036;-63
2021/08/16 06:04:20;;;;;;;5.63;3.25;;;26.70;57.00;;;;;;5047766;28;20780;-64
2021/08/16 06:06:46;;;;;;;3.65;2.90;;;26.70;56.90;;;;;;5039305;28;20032;-63
2021/08/16 06:09:11;;;;;;;5.75;2.83;;;26.70;56.90;;;;;;5035423;28;20013;-63
2021/08/16 06:11:37;;;;;;;4.93;3.10;;;26.70;56.80;;;;;;5038081;28;20079;-64
2021/08/16 06:14:03;;;;;;;4.75;3.10;;;26.70;57.00;;;;;;5042453;28;20033;-64
2021/08/16 06:16:28;;;;;;;4.13;2.90;;;26.70;56.90;;;;;;5042375;28;20120;-63
2021/08/16 06:18:54;;;;;;;5.28;3.10;;;26.70;56.90;;;;;;5047278;28;20037;-63
2021/08/16 06:21:20;;;;;;;4.00;2.90;;;26.70;56.90;;;;;;5046362;28;20041;-63
2021/08/16 06:23:46;;;;;;;3.75;2.80;;;26.70;57.00;;;;;;5043063;28;20445;-64
2021/08/16 06:26:12;;;;;;;3.63;2.60;;;26.60;57.10;;;;;;5042568;28;20025;-64
2021/08/16 06:28:37;;;;;;;3.83;2.90;;;26.60;57.10;;;;;;5046705;28;20039;-64
2021/08/16 06:31:04;;;;;;;5.05;2.67;;;26.60;57.20;;;;;;5045604;28;20035;-63
2021/08/16 06:33:30;;;;;;;5.20;3.00;;;26.60;57.40;;;;;;5032752;28;20030;-63
2021/08/16 06:35:56;;;;;;;4.88;2.92;;;26.60;57.50;;;;;;5035329;28;20732;-64
2021/08/16 06:38:23;;;;;;;4.57;2.83;;;26.60;57.50;;;;;;5042461;28;20056;-63
2021/08/16 06:40:58;;;;;;;4.43;2.42;;;26.60;57.60;;;;;;5047073;28;20415;-63
2021/08/16 06:43:26;;;;;;;4.05;2.88;;;26.60;57.70;;;;;;5039961;28;20076;-62
2021/08/16 06:45:52;;;;;;;3.63;2.85;;;26.60;57.70;;;;;;5042059;28;20025;-64
2021/08/16 06:48:18;;;;;;;3.53;2.60;;;26.60;57.60;;;;;;5041528;28;20056;-63
2021/08/16 06:50:44;;;;;;;3.88;3.08;;;26.50;57.70;;;;;;5047467;28;20033;-63
2021/08/16 06:53:11;;;;;;;3.92;2.75;;;26.60;57.80;;;;;;5038460;28;20120;-63
2021/08/16 06:55:37;;;;;;;4.38;2.80;;;26.50;58.30;;;;;;5042515;28;20119;-64
2021/08/16 06:58:03;;;;;;;5.78;3.70;;;26.50;57.70;;;;;;5042435;28;20883;-64
2021/08/16 07:00:29;;;;;;;5.18;3.28;;;26.50;57.70;;;;;;5039150;28;20109;-64
2021/08/16 07:02:55;;;;;;;5.38;3.70;;;26.40;57.90;;;;;;5041463;28;20087;-63
2021/08/16 07:05:20;;;;;;;4.40;3.30;;;26.40;58.20;;;;;;5033829;28;20029;-62
2021/08/16 07:07:47;;;;;;;3.90;2.90;;;26.20;58.30;;;;;;5041612;28;20025;-63
2021/08/16 07:10:13;;;;;;;3.75;2.92;;;26.20;58.30;;;;;;5042778;28;21095;-63
2021/08/16 07:12:39;;;;;;;4.05;2.47;;;26.20;58.30;;;;;;5038279;28;20070;-64
2021/08/16 07:15:05;;;;;;;4.15;2.63;;;26.30;58.20;;;;;;5041902;28;20178;-64
2021/08/16 07:17:31;;;;;;;3.58;2.40;;;26.30;58.20;;;;;;5041158;28;20048;-63
2021/08/16 07:19:56;;;;;;;3.88;2.50;;;26.30;58.10;;;;;;5042876;28;20025;-64
2021/08/16 07:22:22;;;;;;;3.97;2.50;;;26.40;58.10;;;;;;5043051;28;20025;-65
2021/08/16 07:24:48;;;;;;;3.88;2.50;;;26.40;58.00;;;;;;5052139;28;20032;-63
2021/08/16 07:27:13;;;;;;;4.93;2.60;;;26.40;58.00;;;;;;5054498;28;20075;-64
2021/08/16 07:29:39;;;;;;;3.67;2.55;;;26.40;57.90;;;;;;5044157;28;20071;-64
2021/08/16 07:32:05;;;;;;;3.50;2.50;;;26.40;57.80;;;;;;5030387;28;20112;-64
2021/08/16 07:34:30;;;;;;;3.60;2.55;;;26.40;57.80;;;;;;5040717;28;20150;-64
2021/08/16 07:36:56;;;;;;;3.65;2.40;;;26.40;58.30;;;;;;5041763;28;20068;-64
2021/08/16 07:39:22;;;;;;;3.65;2.45;;;26.40;57.70;;;;;;5040482;28;20041;-64
2021/08/16 07:41:48;;;;;;;4.15;2.53;;;26.50;57.80;;;;;;5040641;28;20068;-63
2021/08/16 07:44:15;;;;;;;3.75;2.80;;;26.50;57.70;;;;;;5036910;28;20108;-63
2021/08/16 07:46:41;;;;;;;3.22;2.30;;;26.50;57.70;;;;;;5043456;28;20025;-63
2021/08/16 07:49:07;;;;;;;3.63;2.60;;;26.50;57.70;;;;;;5037581;28;20380;-63
2021/08/16 07:51:32;;;;;;;3.40;2.53;;;26.50;57.70;;;;;;5039191;28;20105;-64
2021/08/16 07:53:58;;;;;;;3.35;2.25;;;26.50;57.70;;;;;;5041856;28;20031;-64
2021/08/16 07:56:23;;;;;;;3.30;2.40;;;26.50;57.60;;;;;;5039738;28;20033;-61
2021/08/16 07:58:49;;;;;;;2.83;2.10;;;26.50;57.60;;;;;;5039369;28;20035;-63
2021/08/16 08:01:14;;;;;;;3.75;2.78;;;26.50;57.60;;;;;;5039928;28;20032;-62
2021/08/16 08:03:40;;;;;;;4.03;2.90;;;26.50;57.60;;;;;;5036378;28;20060;-62
2021/08/16 08:06:06;;;;;;;3.08;2.63;;;26.50;57.60;;;;;;5037019;28;20017;-63
2021/08/16 08:08:32;;;;;;;3.95;2.40;;;26.50;57.50;;;;;;5035916;28;20044;-62
2021/08/16 08:10:57;;;;;;;3.10;2.30;;;26.60;57.60;;;;;;5038954;28;20029;-63
2021/08/16 08:13:23;;;;;;;3.13;2.17;;;26.50;57.50;;;;;;5040844;28;20663;-62
2021/08/16 08:15:48;;;;;;;3.15;2.47;;;26.50;57.50;;;;;;5039553;28;20043;-64
2021/08/16 08:18:14;;;;;;;3.13;2.40;;;26.50;57.50;;;;;;5040510;28;20060;-62
2021/08/16 08:20:41;;;;;;;3.17;2.70;;;26.50;57.50;;;;;;5038469;28;20037;-63
2021/08/16 08:23:08;;;;;;;2.65;2.10;;;26.60;57.50;;;;;;5041815;28;20422;-63
2021/08/16 08:25:34;;;;;;;3.40;2.45;;;26.60;57.50;;;;;;5042096;28;20021;-64
2021/08/16 08:28:00;;;;;;;3.00;2.30;;;26.60;57.50;;;;;;5046327;28;20025;-64
2021/08/16 08:30:25;;;;;;;3.25;2.50;;;26.60;57.50;;;;;;5042554;28;20563;-62
2021/08/16 08:32:55;;;;;;;2.80;2.05;;;26.60;57.50;;;;;;5043709;28;20096;-63
2021/08/16 08:35:23;;;;;;;3.53;2.60;;;26.60;57.50;;;;;;5043617;28;20084;-63
2021/08/16 08:37:49;;;;;;;2.75;2.05;;;26.60;57.50;;;;;;5043767;28;20039;-60
2021/08/16 08:40:16;;;;;;;3.17;2.40;;;26.60;57.50;;;;;;5045617;28;20486;-63
2021/08/16 08:42:49;;;;;;;3.10;2.38;;;26.60;57.40;;;;;;5043466;28;20033;-63
2021/08/16 08:45:15;;;;;;;3.22;2.50;;;26.60;57.40;;;;;;5041990;28;20043;-63
2021/08/16 08:47:41;;;;;;;3.45;2.42;;;26.60;57.40;;;;;;5042004;28;20525;-63
2021/08/16 08:50:07;;;;;;;3.25;2.47;;;26.60;57.40;;;;;;5042320;28;20036;-64
2021/08/16 08:52:32;;;;;;;3.55;2.47;;;26.60;57.40;;;;;;5043329;28;20087;-63
2021/08/16 08:54:58;;;;;;;3.28;2.40;;;26.60;57.40;;;;;;5047008;28;20060;-64
2021/08/16 08:57:27;;;;;;;3.08;2.10;;;26.60;57.40;;;;;;5043572;28;20055;-62
2021/08/16 08:59:54;;;;;;;3.38;2.40;;;26.60;57.30;;;;;;5040098;28;20063;-64
2021/08/16 09:02:20;;;;;;;3.75;2.30;;;26.60;57.40;;;;;;5055381;28;20178;-63
2021/08/16 09:04:56;;;;;;;2.97;2.22;;;26.70;57.40;;;;;;5048869;28;20403;-63
2021/08/16 09:07:38;;;;;;;3.28;2.58;;;26.60;57.30;;;;;;5047206;28;20025;-63
2021/08/16 09:10:09;;;;;;;3.10;2.45;;;26.70;57.40;;;;;;5041303;28;20638;-63
2021/08/16 09:12:37;;;;;;;3.33;2.58;;;26.60;57.30;;;;;;5044654;28;20080;-62
2021/08/16 09:15:14;;;;;;;3.25;2.42;;;26.60;57.30;;;;;;5044380;28;20551;-65
2021/08/16 09:17:40;;;;;;;3.20;2.50;;;26.70;57.30;;;;;;5041398;28;20033;-62
2021/08/16 09:20:14;;;;;;;3.20;2.33;;;26.70;57.30;;;;;;5042184;28;20060;-63
2021/08/16 09:22:40;;;;;;;3.88;2.60;;;26.70;57.30;;;;;;5049388;28;20504;-65
2021/08/16 09:25:10;;;;;;;2.92;2.42;;;26.70;57.30;;;;;;5058066;28;20032;-63
2021/08/16 09:27:47;;;;;;;3.00;2.20;;;26.70;57.30;;;;;;5054946;28;20448;-64
2021/08/16 09:30:15;;;;;;;3.55;2.58;;;26.70;57.20;;;;;;5049930;28;20037;-62
2021/08/16 09:32:41;;;;;;;3.28;2.58;;;26.70;57.20;;;;;;5042172;28;20072;-63
2021/08/16 09:35:09;;;;;;;3.10;2.30;;;26.70;57.20;;;;;;5043645;28;20033;-64
2021/08/16 09:37:36;;;;;;;2.95;2.28;;;26.70;57.10;;;;;;5045077;28;20139;-64
2021/08/16 09:40:11;;;;;;;2.80;2.22;;;26.70;57.20;;;;;;5048443;28;20044;-63
2021/08/16 09:42:43;;;;;;;2.72;2.08;;;26.70;57.10;;;;;;5050608;28;20021;-64
2021/08/16 09:45:11;;;;;;;2.72;2.25;;;26.70;57.10;;;;;;5050349;28;20016;-64
2021/08/16 09:47:40;;;;;;;4.15;2.33;;;26.70;57.20;;;;;;5043024;28;20029;-63
2021/08/16 09:50:06;;;;;;;3.10;2.40;;;26.70;57.10;;;;;;5062342;28;20021;-65
2021/08/16 09:52:33;;;;;;;3.00;2.53;;;26.70;57.10;;;;;;5057901;28;20555;-63
2021/08/16 09:54:59;;;;;;;2.90;2.30;;;26.70;57.10;;;;;;5041426;28;20432;-61
2021/08/16 09:57:27;;;;;;;3.45;2.50;;;26.70;57.10;;;;;;5043724;28;20052;-63
2021/08/16 09:59:54;;;;;;;3.65;2.28;;;26.70;57.00;;;;;;5044963;28;20111;-63
2021/08/16 10:02:21;;;;;;;3.75;2.17;;;26.70;57.00;;;;;;5042521;28;20698;-63
2021/08/16 10:04:46;;;;;;;2.95;2.15;;;26.70;57.00;;;;;;5043199;28;20488;-62
2021/08/16 10:07:13;;;;;;;3.00;2.50;;;26.70;57.00;;;;;;5041896;28;20047;-62
2021/08/16 10:09:38;;;;;;;2.90;2.10;;;26.70;57.00;;;;;;5039477;28;20507;-64
2021/08/16 10:12:05;;;;;;;3.10;2.30;;;26.70;56.90;;;;;;5041973;28;20156;-63
2021/08/16 10:14:32;;;;;;;3.03;2.28;;;26.70;57.00;;;;;;5036100;28;20028;-62
2021/08/16 10:17:00;;;;;;;3.63;2.40;;;26.70;56.90;;;;;;5043722;28;20025;-65
2021/08/16 10:19:38;;;;;;;3.38;2.47;;;26.70;56.90;;;;;;5037021;28;20106;-63
2021/08/16 10:22:06;;;;;;;3.42;2.40;;;26.70;56.90;;;;;;5038069;28;20139;-63
2021/08/16 10:24:31;;;;;;;3.28;2.17;;;26.70;56.90;;;;;;5044556;28;20029;-63
2021/08/16 10:27:08;;;;;;;3.10;2.20;;;26.70;56.90;;;;;;5041160;28;20574;-63
2021/08/16 10:29:36;;;;;;;2.85;2.40;;;26.70;56.90;;;;;;5044321;28;20029;-64
2021/08/16 10:32:03;;;;;;;2.70;2.17;;;26.70;56.90;;;;;;5053812;28;20451;-63
2021/08/16 10:34:32;;;;;;;2.88;2.35;;;26.80;57.00;;;;;;5040857;28;20151;-63
2021/08/16 10:37:00;;;;;;;4.53;2.20;;;26.70;57.00;;;;;;5044842;28;20106;-63
2021/08/16 10:39:35;;;;;;;2.65;2.00;;;26.70;57.00;;;;;;5040724;28;20124;-63
2021/08/16 10:42:17;;;;;;;3.20;2.25;;;26.70;57.00;;;;;;5042036;28;20033;-65
2021/08/16 10:44:47;;;;;;;2.88;2.20;;;26.70;57.00;;;;;;5041944;28;20480;-65
2021/08/16 10:47:28;;;;;;;2.58;2.00;;;26.80;57.10;;;;;;5044973;28;20380;-63
2021/08/16 10:50:09;;;;;;;3.08;2.25;;;26.80;57.10;;;;;;5043416;28;20028;-63
2021/08/16 10:52:37;;;;;;;3.38;2.10;;;26.80;57.10;;;;;;5046113;28;20058;-63
2021/08/16 10:55:17;;;;;;;2.90;2.10;;;26.80;57.10;;;;;;5041665;28;20033;-64
2021/08/16 10:57:44;;;;;;;3.00;2.00;;;26.80;57.10;;;;;;5035807;28;20055;-62
2021/08/16 11:00:13;;;;;;;3.08;2.20;;;26.80;57.10;;;;;;5038172;28;20033;-63
2021/08/16 11:02:41;;;;;;;2.88;2.15;;;26.80;57.10;;;;;;5034787;28;20128;-63
2021/08/16 11:05:09;;;;;;;2.80;2.10;;;26.80;57.10;;;;;;5038936;28;20036;-63
2021/08/16 11:07:34;;;;;;;2.75;2.10;;;26.80;57.10;;;;;;5036031;28;20734;-62
2021/08/16 11:10:11;;;;;;;2.67;1.98;;;26.80;57.20;;;;;;5041755;28;20060;-62
2021/08/16 11:12:43;;;;;;;2.40;2.00;;;26.80;57.20;;;;;;5035532;28;20044;-63
2021/08/16 11:15:15;;;;;;;2.35;1.75;;;26.80;57.20;;;;;;5035169;28;20051;-63
2021/08/16 11:17:40;;;;;;;3.20;2.30;;;26.80;57.20;;;;;;5035340;28;20037;-63
2021/08/16 11:20:16;;;;;;;3.72;2.10;;;26.80;57.10;;;;;;5032699;28;20135;-63
2021/08/16 11:22:53;;;;;;;2.63;2.00;;;26.80;57.10;;;;;;5031345;28;20051;-65
2021/08/16 11:25:20;;;;;;;2.38;1.88;;;26.90;57.20;;;;;;5031282;28;20090;-63
2021/08/16 11:27:45;;;;;;;2.45;1.90;;;26.90;57.20;;;;;;5034290;28;20040;-63
2021/08/16 11:30:12;;;;;;;3.30;2.22;;;26.90;57.10;;;;;;5037561;28;20040;-62
2021/08/16 11:32:40;;;;;;;2.92;1.85;;;26.90;57.10;;;;;;5030456;28;20041;-62
2021/08/16 11:35:07;;;;;;;3.13;2.13;;;26.90;57.10;;;;;;5030574;28;20614;-61
2021/08/16 11:37:37;;;;;;;2.50;1.90;;;26.90;57.10;;;;;;5027969;28;20123;-61
2021/08/16 11:40:04;;;;;;;2.53;2.00;;;26.90;57.10;;;;;;5030703;28;20025;-64
2021/08/16 11:42:30;;;;;;;2.58;1.90;;;26.90;57.10;;;;;;5027812;28;20083;-61
2021/08/16 11:45:04;;;;;;;2.80;1.92;;;26.90;57.10;;;;;;5028240;28;20029;-62
2021/08/16 11:47:36;;;;;;;2.72;2.10;;;26.90;57.00;;;;;;5033579;28;20059;-61
2021/08/16 11:50:06;;;;;;;3.22;2.17;;;26.90;56.90;;;;;;5032912;28;20064;-61
2021/08/16 11:52:31;;;;;;;2.72;1.98;;;26.90;56.90;;;;;;5035520;28;20131;-62
2021/08/16 11:54:59;;;;;;;2.95;2.17;;;26.90;56.80;;;;;;5041362;28;20745;-62
2021/08/16 11:57:25;;;;;;;2.80;2.05;;;26.90;56.80;;;;;;5039828;28;20389;-64
2021/08/16 11:59:52;;;;;;;3.10;2.40;;;26.90;56.80;;;;;;5036919;28;20421;-62
2021/08/16 12:02:19;;;;;;;3.53;2.50;;;26.90;56.90;;;;;;5037097;28;20029;-63
2021/08/16 12:04:49;;;;;;;4.00;3.05;;;26.90;54.80;;;;;;5040449;28;20032;-63
2021/08/16 12:07:18;;;;;;;5.13;3.35;;;26.90;53.30;;;;;;5043007;28;20083;-61
2021/08/16 12:09:43;;;;;;;4.60;3.20;;;26.80;51.90;;;;;;5034199;28;20030;-63
2021/08/16 12:12:11;;;;;;;5.03;3.50;;;26.80;51.00;;;;;;5035411;28;20037;-63
2021/08/16 12:14:38;;;;;;;4.38;3.00;;;26.80;50.50;;;;;;5040822;28;20392;-64
2021/08/16 12:17:05;;;;;;;4.75;3.10;;;26.80;50.20;;;;;;5040515;28;20020;-62
2021/08/16 12:19:31;;;;;;;5.20;2.83;;;26.70;50.00;;;;;;5036116;28;20091;-64
2021/08/16 12:22:10;;;;;;;4.63;3.08;;;26.70;49.70;;;;;;5038852;28;20459;-64
2021/08/16 12:24:38;;;;;;;5.35;3.22;;;26.70;49.20;;;;;;5040299;28;20025;-62
2021/08/16 12:27:16;;;;;;;3.75;2.60;;;26.70;49.40;;;;;;5037108;28;20026;-62
2021/08/16 12:29:44;;;;;;;4.72;3.13;;;26.70;49.30;;;;;;5038377;28;20485;-63
2021/08/16 12:32:21;;;;;;;4.45;2.90;;;26.70;49.20;;;;;;5041643;28;20484;-63
2021/08/16 12:34:48;;;;;;;4.18;2.65;;;26.70;48.80;;;;;;5043648;28;20456;-61
2021/08/16 12:37:31;;;;;;;4.13;2.65;;;26.70;48.90;;;;;;5036321;28;20379;-62
2021/08/16 12:40:10;;;;;;;4.97;3.00;;;26.60;48.60;;;;;;5035818;28;20040;-63
2021/08/16 12:42:36;;;;;;;4.20;2.58;;;26.60;48.40;;;;;;5035708;28;20072;-62
2021/08/16 12:45:06;;;;;;;4.03;2.60;;;26.60;49.00;;;;;;5035850;28;20032;-64
2021/08/16 12:47:33;;;;;;;3.60;2.60;;;26.60;48.50;;;;;;5042862;28;20170;-64